createdAt,value
2023-08-17T00:01:05.782Z,51.54
2023-08-17T00:03:51.797Z,51.64
2023-08-17T00:06:41.714Z,51.63
2023-08-17T00:09:27.789Z,51.48
2023-08-17T00:12:14.912Z,51.69
2023-08-17T00:15:00.998Z,51.72
2023-08-17T00:17:47.393Z,51.77
2023-08-17T00:20:33.552Z,51.88
2023-08-17T00:23:21.556Z,51.91
2023-08-17T00:26:07.606Z,52.13
2023-08-17T00:28:53.548Z,52.02
2023-08-17T00:31:39.513Z,52.20
2023-08-17T00:34:25.517Z,52.20
2023-08-17T00:37:11.948Z,52.13
2023-08-17T00:39:58.861Z,52.30
2023-08-17T00:42:44.970Z,52.31
2023-08-17T00:45:31.253Z,52.40
2023-08-17T00:48:17.297Z,52.30
2023-08-17T00:51:06.458Z,52.70
2023-08-17T00:53:52.966Z,52.48
2023-08-17T00:56:39.571Z,52.54
2023-08-17T00:59:25.708Z,52.70
2023-08-17T01:02:11.519Z,52.56
2023-08-17T01:04:57.793Z,52.68
2023-08-17T01:07:45.295Z,52.70
2023-08-17T01:10:56.969Z,53.80
2023-08-17T01:13:49.808Z,53.05
2023-08-17T01:17:02.807Z,53.36
2023-08-17T01:19:49.129Z,52.95
2023-08-17T01:22:37.384Z,53.21
2023-08-17T01:25:23.324Z,52.97
2023-08-17T01:28:09.428Z,53.08
2023-08-17T01:31:11.437Z,53.44
2023-08-17T01:34:00.574Z,52.90
2023-08-17T01:36:57.506Z,53.22
2023-08-17T01:39:45.967Z,53.03
2023-08-17T01:42:32.071Z,53.04
2023-08-17T01:45:18.818Z,53.18
2023-08-17T01:48:05.444Z,53.07
2023-08-17T01:50:51.408Z,53.11
2023-08-17T01:53:41.373Z,53.27
2023-08-17T01:56:27.420Z,53.21
2023-08-17T01:59:14.324Z,53.38
2023-08-17T02:02:02.813Z,53.44
2023-08-17T02:04:49.005Z,53.43
2023-08-17T02:07:35.003Z,53.44
2023-08-17T02:10:21.236Z,53.40
2023-08-17T02:13:17.280Z,53.38
2023-08-17T02:16:07.747Z,53.38
2023-08-17T02:18:54.233Z,53.40
2023-08-17T02:21:40.427Z,53.46
2023-08-17T02:24:28.371Z,53.54
2023-08-17T02:27:18.966Z,53.47
2023-08-17T02:30:05.705Z,53.50
2023-08-17T02:32:52.746Z,53.59
2023-08-17T02:35:39.072Z,53.68
2023-08-17T02:38:25.388Z,53.59
2023-08-17T02:41:11.894Z,53.69
2023-08-17T02:43:57.709Z,53.44
2023-08-17T02:46:43.518Z,53.53
2023-08-17T02:50:40.690Z,54.34
2023-08-17T02:53:26.716Z,53.75
2023-08-17T02:56:13.464Z,53.59
2023-08-17T03:00:03.424Z,54.04
2023-08-17T03:02:49.491Z,53.58
2023-08-17T03:05:35.674Z,53.72
2023-08-17T03:08:25.993Z,53.87
2023-08-17T03:11:13.394Z,53.72
2023-08-17T03:14:02.380Z,53.65
2023-08-17T03:16:49.439Z,53.64
2023-08-17T03:19:35.549Z,53.68
2023-08-17T03:22:22.679Z,53.84
2023-08-17T03:25:09.883Z,53.84
2023-08-17T03:27:56.289Z,53.86
2023-08-17T03:30:42.421Z,53.96
2023-08-17T03:33:31.846Z,53.83
2023-08-17T03:36:17.816Z,53.77
2023-08-17T03:39:07.152Z,54.11
2023-08-17T03:41:53.303Z,53.93
2023-08-17T03:44:40.180Z,54.09
2023-08-17T03:47:26.723Z,53.95
2023-08-17T03:50:13.298Z,54.13
2023-08-17T03:54:23.930Z,54.81
2023-08-17T03:57:10.092Z,53.83
2023-08-17T03:59:56.109Z,54.13
2023-08-17T04:02:44.810Z,54.19
2023-08-17T04:05:35.486Z,54.18
2023-08-17T04:08:21.526Z,54.06
2023-08-17T04:11:07.542Z,54.23
2023-08-17T04:13:57.377Z,54.10
2023-08-17T04:16:44.153Z,54.20
2023-08-17T04:20:07.260Z,54.95
2023-08-17T04:22:53.212Z,54.11
2023-08-17T04:25:39.627Z,54.27
2023-08-17T04:28:30.652Z,54.36
2023-08-17T04:31:18.573Z,54.10
2023-08-17T04:34:08.814Z,54.14
2023-08-17T04:36:57.955Z,54.28
2023-08-17T04:39:44.683Z,54.06
2023-08-17T04:42:36.370Z,54.24
2023-08-17T04:45:22.459Z,54.00
2023-08-17T04:48:41.585Z,54.97
2023-08-17T04:51:28.023Z,54.06
2023-08-17T04:54:15.577Z,54.26
2023-08-17T04:57:01.733Z,54.25
2023-08-17T04:59:47.987Z,54.46
2023-08-17T05:02:40.788Z,54.30
2023-08-17T05:05:27.395Z,54.43
2023-08-17T05:08:15.462Z,54.27
2023-08-17T05:11:01.605Z,54.45
2023-08-17T05:13:48.486Z,54.22
2023-08-17T05:16:37.529Z,54.52
2023-08-17T05:19:23.669Z,54.39
2023-08-17T05:22:12.724Z,54.57
2023-08-17T05:24:58.780Z,54.51
2023-08-17T05:27:45.840Z,54.60
2023-08-17T05:30:31.729Z,54.54
2023-08-17T05:33:18.987Z,54.60
2023-08-17T05:36:05.621Z,54.53
2023-08-17T05:38:53.860Z,54.67
2023-08-17T05:41:39.750Z,54.66
2023-08-17T05:44:25.957Z,54.57
2023-08-17T05:47:12.145Z,54.78
2023-08-17T05:49:58.116Z,54.82
2023-08-17T05:52:44.155Z,54.86
2023-08-17T05:55:30.408Z,54.75
2023-08-17T05:58:16.700Z,54.92
2023-08-17T06:01:07.356Z,55.00
2023-08-17T06:04:28.207Z,55.22
2023-08-17T06:07:14.185Z,54.85
2023-08-17T06:10:00.427Z,54.83
2023-08-17T06:12:46.569Z,54.95
2023-08-17T06:15:34.690Z,54.95
2023-08-17T06:18:21.960Z,54.82
2023-08-17T06:21:08.141Z,54.88
2023-08-17T06:23:54.242Z,54.83
2023-08-17T06:26:43.321Z,54.78
2023-08-17T06:29:29.416Z,54.78
2023-08-17T06:32:18.983Z,54.77
2023-08-17T06:35:05.540Z,54.62
2023-08-17T06:37:52.597Z,54.75
2023-08-17T06:40:38.695Z,54.60
2023-08-17T06:43:25.158Z,54.69
2023-08-17T06:46:13.906Z,54.61
2023-08-17T06:49:01.170Z,54.44
2023-08-17T06:51:47.370Z,54.23
2023-08-17T06:54:47.696Z,54.28
2023-08-17T06:57:33.892Z,54.14
2023-08-17T07:00:24.451Z,53.78
2023-08-17T07:03:13.910Z,53.69
2023-08-17T07:06:00.050Z,53.49
2023-08-17T07:08:47.677Z,53.18
2023-08-17T07:12:03.885Z,53.27
2023-08-17T07:14:49.682Z,53.04
2023-08-17T07:17:41.714Z,52.89
2023-08-17T07:20:27.916Z,52.93
2023-08-17T07:23:29.482Z,52.96
2023-08-17T07:26:15.609Z,52.52
2023-08-17T07:29:01.638Z,52.79
2023-08-17T07:32:30.988Z,52.88
2023-08-17T07:35:17.041Z,52.54
2023-08-17T07:38:09.050Z,52.38
2023-08-17T07:40:56.458Z,52.35
2023-08-17T07:43:42.593Z,52.32
2023-08-17T07:46:28.643Z,52.16
2023-08-17T07:49:22.863Z,52.23
2023-08-17T07:52:17.263Z,52.10
2023-08-17T07:55:04.588Z,52.12
2023-08-17T07:57:50.553Z,52.13
2023-08-17T08:00:36.786Z,52.10
2023-08-17T08:03:23.266Z,52.09
2023-08-17T08:06:09.448Z,51.91
2023-08-17T08:08:55.361Z,51.79
2023-08-17T08:11:43.160Z,51.67
2023-08-17T08:14:29.117Z,51.95
2023-08-17T08:17:15.124Z,51.78
2023-08-17T08:20:02.068Z,51.60
2023-08-17T08:22:49.551Z,51.51
2023-08-17T08:25:40.319Z,51.48
2023-08-17T08:28:26.616Z,51.40
2023-08-17T08:31:13.950Z,51.36
2023-08-17T08:34:01.890Z,51.25
2023-08-17T08:36:49.892Z,50.83
2023-08-17T08:39:52.639Z,50.75
2023-08-17T08:42:39.141Z,50.87
2023-08-17T08:45:25.442Z,50.57
2023-08-17T08:48:17.249Z,50.70
2023-08-17T08:51:05.428Z,50.70
2023-08-17T08:54:05.755Z,50.65
2023-08-17T08:57:03.072Z,50.35
2023-08-17T08:59:49.217Z,50.40
2023-08-17T09:02:35.525Z,50.23
2023-08-17T09:05:23.921Z,49.97
2023-08-17T09:08:17.391Z,49.91
2023-08-17T09:11:04.451Z,49.96
2023-08-17T09:13:53.733Z,49.72
2023-08-17T09:16:40.428Z,49.94
2023-08-17T09:19:26.709Z,50.00
2023-08-17T09:22:12.717Z,49.94
2023-08-17T09:25:03.740Z,49.65
2023-08-17T09:27:50.096Z,49.51
2023-08-17T09:31:05.050Z,49.51
2023-08-17T09:33:54.535Z,49.16
2023-08-17T09:36:40.972Z,49.02
2023-08-17T09:39:30.152Z,48.92
2023-08-17T09:42:19.917Z,49.19
2023-08-17T09:45:07.001Z,48.64
2023-08-17T09:48:03.224Z,48.56
2023-08-17T09:50:50.003Z,48.70
2023-08-17T09:53:40.019Z,48.43
2023-08-17T09:56:28.208Z,48.44
2023-08-17T09:59:14.195Z,48.68
2023-08-17T10:02:01.587Z,48.24
2023-08-17T10:04:52.209Z,48.30
2023-08-17T10:07:40.243Z,48.56
2023-08-17T10:10:28.378Z,48.44
2023-08-17T10:13:52.699Z,48.03
2023-08-17T10:16:49.629Z,48.04
2023-08-17T10:19:53.020Z,48.01
2023-08-17T10:27:09.677Z,47.86
2023-08-17T10:29:56.281Z,47.71
2023-08-17T10:32:46.557Z,47.84
2023-08-17T10:35:37.108Z,47.56
2023-08-17T10:38:23.585Z,47.62
2023-08-17T10:41:17.819Z,47.57
2023-08-17T10:44:04.612Z,47.19
2023-08-17T10:46:52.330Z,46.95
2023-08-17T10:49:39.623Z,46.92
2023-08-17T10:52:38.610Z,47.14
2023-08-17T10:55:53.498Z,47.33
2023-08-17T10:58:39.650Z,47.01
2023-08-17T11:01:42.144Z,46.37
2023-08-17T11:04:33.826Z,46.27
2023-08-17T11:07:20.355Z,46.09
2023-08-17T11:10:22.377Z,45.75
2023-08-17T11:13:08.541Z,45.91
2023-08-17T11:15:54.521Z,45.75
2023-08-17T11:18:42.447Z,45.32
2023-08-17T11:21:28.736Z,45.51
2023-08-17T11:24:14.896Z,45.04
2023-08-17T11:27:01.729Z,45.12
2023-08-17T11:29:47.526Z,44.93
2023-08-17T11:32:33.815Z,45.15
2023-08-17T11:35:20.773Z,45.07
2023-08-17T11:38:08.934Z,44.89
2023-08-17T11:40:57.628Z,44.64
2023-08-17T11:43:44.892Z,44.61
2023-08-17T11:46:34.623Z,44.32
2023-08-17T11:49:23.616Z,44.14
2023-08-17T11:52:12.572Z,43.38
2023-08-17T11:54:58.852Z,43.34
2023-08-17T11:57:45.036Z,42.88
2023-08-17T12:00:38.309Z,42.62
2023-08-17T12:03:25.821Z,42.80
2023-08-17T12:06:14.783Z,42.79
2023-08-17T12:09:00.958Z,42.55
2023-08-17T12:11:47.788Z,42.78
2023-08-17T12:14:34.824Z,42.72
2023-08-17T12:17:22.366Z,42.19
2023-08-17T12:20:08.754Z,41.09
2023-08-17T12:22:54.769Z,40.75
2023-08-17T12:25:40.748Z,40.65
2023-08-17T12:28:26.774Z,40.55
2023-08-17T12:31:12.930Z,40.85
2023-08-17T12:33:59.099Z,40.63
2023-08-17T12:36:45.433Z,40.36
2023-08-17T12:39:31.443Z,39.61
2023-08-17T12:42:18.140Z,37.99
2023-08-17T12:45:06.017Z,36.74
2023-08-17T12:47:52.119Z,36.11
2023-08-17T12:50:43.379Z,35.31
2023-08-17T12:53:30.101Z,35.42
2023-08-17T12:56:15.972Z,35.96
2023-08-17T12:59:03.329Z,36.81
2023-08-17T13:01:49.625Z,36.61
2023-08-17T13:04:35.740Z,34.87
2023-08-17T13:07:21.612Z,34.53
2023-08-17T13:10:08.303Z,34.74
2023-08-17T13:13:00.627Z,35.22
2023-08-17T13:15:51.328Z,36.44
2023-08-17T13:18:41.658Z,35.76
2023-08-17T13:21:28.102Z,34.07
2023-08-17T13:24:29.961Z,30.69
2023-08-17T13:27:18.686Z,32.74
2023-08-17T13:30:18.397Z,31.80
2023-08-17T13:33:05.087Z,34.04
2023-08-17T13:36:02.133Z,33.09
2023-08-17T13:38:48.423Z,31.50
2023-08-17T13:41:41.775Z,29.13
2023-08-17T13:44:27.752Z,28.69
2023-08-17T13:47:16.743Z,27.62
2023-08-17T13:50:04.542Z,26.75
2023-08-17T13:52:55.787Z,25.25
2023-08-17T13:55:42.070Z,24.95
2023-08-17T13:58:29.296Z,25.40
2023-08-17T14:01:18.202Z,25.30
2023-08-17T14:04:05.133Z,26.28
2023-08-17T14:06:53.338Z,26.82
2023-08-17T14:09:39.542Z,28.40
2023-08-17T14:12:27.178Z,28.30
2023-08-17T14:15:13.719Z,28.64
2023-08-17T14:18:12.333Z,26.35
2023-08-17T14:20:58.806Z,27.76
2023-08-17T14:23:45.832Z,26.02
2023-08-17T14:26:38.707Z,25.19
2023-08-17T14:29:24.842Z,26.15
2023-08-17T14:32:11.036Z,26.30
2023-08-17T14:34:56.917Z,26.96
2023-08-17T14:37:43.145Z,27.54
2023-08-17T14:40:42.952Z,28.03
2023-08-17T14:43:28.905Z,29.07
2023-08-17T14:46:17.083Z,29.41
2023-08-17T14:49:03.274Z,29.86
2023-08-17T14:51:54.254Z,30.19
2023-08-17T14:54:43.215Z,31.01
2023-08-17T14:57:31.911Z,31.34
2023-08-17T15:00:18.354Z,31.76
2023-08-17T15:03:05.081Z,33.62
2023-08-17T15:05:53.064Z,33.83
2023-08-17T15:08:39.369Z,33.34
2023-08-17T15:11:25.774Z,31.86
2023-08-17T15:14:16.146Z,30.63
2023-08-17T15:17:06.025Z,28.92
2023-08-17T15:19:52.012Z,27.64
2023-08-17T15:22:39.186Z,26.77
2023-08-17T15:25:25.468Z,25.88
2023-08-17T15:28:11.977Z,25.17
2023-08-17T15:31:03.676Z,24.34
2023-08-17T15:33:49.920Z,24.18
2023-08-17T15:36:35.878Z,24.02
2023-08-17T15:39:24.228Z,23.69
2023-08-17T15:42:10.376Z,24.04
2023-08-17T15:45:04.617Z,23.45
2023-08-17T15:47:50.563Z,24.35
2023-08-17T15:50:38.050Z,24.22
2023-08-17T15:53:24.248Z,24.58
2023-08-17T15:56:11.733Z,24.75
2023-08-17T15:58:57.659Z,25.04
2023-08-17T16:01:43.940Z,25.37
2023-08-17T16:04:30.933Z,25.70
2023-08-17T16:07:17.002Z,26.77
2023-08-17T16:10:03.412Z,27.15
2023-08-17T16:12:49.519Z,27.92
2023-08-17T16:15:35.919Z,28.58
2023-08-17T16:18:22.179Z,29.11
2023-08-17T16:21:14.279Z,29.75
2023-08-17T16:24:00.990Z,29.87
2023-08-17T16:26:47.239Z,30.60
2023-08-17T16:29:33.099Z,30.89
2023-08-17T16:32:18.974Z,31.13
2023-08-17T16:35:05.323Z,31.65
2023-08-17T16:37:51.164Z,31.50
2023-08-17T16:40:38.641Z,32.18
2023-08-17T16:43:25.365Z,32.34
2023-08-17T16:46:15.604Z,32.80
2023-08-17T16:49:02.090Z,33.21
2023-08-17T16:51:48.034Z,33.07
2023-08-17T16:54:33.967Z,33.56
2023-08-17T16:57:20.077Z,33.95
2023-08-17T17:00:06.997Z,34.11
2023-08-17T17:02:54.540Z,34.28
2023-08-17T17:05:40.473Z,34.40
2023-08-17T17:08:26.489Z,34.59
2023-08-17T17:11:13.044Z,34.96
2023-08-17T17:13:59.881Z,35.04
2023-08-17T17:16:46.220Z,35.04
2023-08-17T17:19:32.120Z,35.41
2023-08-17T17:22:18.481Z,35.59
2023-08-17T17:25:05.505Z,36.03
2023-08-17T17:27:51.227Z,36.45
2023-08-17T17:30:45.328Z,36.41
2023-08-17T17:33:49.808Z,36.31
2023-08-17T17:36:36.959Z,36.50
2023-08-17T17:39:36.478Z,37.09
2023-08-17T17:42:22.438Z,37.09
2023-08-17T17:45:09.086Z,37.06
2023-08-17T17:47:55.353Z,37.51
2023-08-17T17:50:41.994Z,37.56
2023-08-17T17:53:28.087Z,37.31
2023-08-17T17:56:14.402Z,37.77
2023-08-17T17:59:01.735Z,37.90
2023-08-17T18:01:48.194Z,38.25
2023-08-17T18:04:34.414Z,38.25
2023-08-17T18:07:21.822Z,38.71
2023-08-17T18:10:08.542Z,38.60
2023-08-17T18:12:54.730Z,38.52
2023-08-17T18:15:41.106Z,38.70
2023-08-17T18:18:27.325Z,38.95
2023-08-17T18:21:17.204Z,38.89
2023-08-17T18:24:03.621Z,39.44
2023-08-17T18:26:49.813Z,39.24
2023-08-17T18:29:36.125Z,39.45
2023-08-17T18:32:22.337Z,39.36
2023-08-17T18:35:09.692Z,39.82
2023-08-17T18:37:55.529Z,39.56
2023-08-17T18:40:45.359Z,40.37
2023-08-17T18:43:31.388Z,40.38
2023-08-17T18:46:19.383Z,40.33
2023-08-17T18:49:05.610Z,40.39
2023-08-17T18:51:52.073Z,40.57
2023-08-17T18:54:38.189Z,41.02
2023-08-17T18:57:33.708Z,41.23
2023-08-17T19:00:21.022Z,41.13
2023-08-17T19:03:07.258Z,41.10
2023-08-17T19:05:53.764Z,41.24
2023-08-17T19:08:39.989Z,41.50
2023-08-17T19:11:27.218Z,41.47
2023-08-17T19:14:16.223Z,41.78
2023-08-17T19:17:02.581Z,41.90
2023-08-17T19:19:49.702Z,41.50
2023-08-17T19:22:36.607Z,41.91
2023-08-17T19:25:23.576Z,41.91
2023-08-17T19:28:09.670Z,42.18
2023-08-17T19:30:56.029Z,42.13
2023-08-17T19:33:42.111Z,42.11
2023-08-17T19:36:28.013Z,42.52
2023-08-17T19:39:14.470Z,42.49
2023-08-17T19:42:03.584Z,42.61
2023-08-17T19:44:49.718Z,42.99
2023-08-17T19:47:36.013Z,42.97
2023-08-17T19:50:22.208Z,43.02
2023-08-17T19:53:08.193Z,43.37
2023-08-17T19:55:58.635Z,43.41
2023-08-17T19:58:46.046Z,43.50
2023-08-17T20:01:35.104Z,43.56
2023-08-17T20:04:21.293Z,43.52
2023-08-17T20:07:08.415Z,43.65
2023-08-17T20:09:55.214Z,43.87
2023-08-17T20:12:41.394Z,44.11
2023-08-17T20:15:27.746Z,43.97
2023-08-17T20:18:14.484Z,44.45
2023-08-17T20:21:03.359Z,44.35
2023-08-17T20:23:49.854Z,44.24
2023-08-17T20:26:37.683Z,44.35
2023-08-17T20:29:23.573Z,44.24
2023-08-17T20:32:09.961Z,44.41
2023-08-17T20:34:57.211Z,44.43
2023-08-17T20:37:43.572Z,44.31
2023-08-17T20:40:29.704Z,44.77
2023-08-17T20:43:15.570Z,44.87
2023-08-17T20:46:01.744Z,44.94
2023-08-17T20:48:48.675Z,44.82
2023-08-17T20:51:34.913Z,45.10
2023-08-17T20:54:20.806Z,45.00
2023-08-17T20:57:06.755Z,45.53
2023-08-17T20:59:53.649Z,45.15
2023-08-17T21:02:40.818Z,45.42
2023-08-17T21:05:29.125Z,45.50
2023-08-17T21:08:14.999Z,45.39
2023-08-17T21:11:03.483Z,45.75
2023-08-17T21:13:49.426Z,45.75
2023-08-17T21:16:37.176Z,45.93
2023-08-17T21:19:24.826Z,46.24
2023-08-17T21:22:10.930Z,46.18
2023-08-17T21:24:57.377Z,46.00
2023-08-17T21:27:43.776Z,46.25
2023-08-17T21:30:29.610Z,46.67
2023-08-17T21:33:16.150Z,46.42
2023-08-17T21:36:02.396Z,46.61
2023-08-17T21:38:48.986Z,46.72
2023-08-17T21:41:35.190Z,46.71
2023-08-17T21:44:25.319Z,46.98
2023-08-17T21:47:11.292Z,46.96
2023-08-17T21:49:59.718Z,46.97
2023-08-17T21:52:45.682Z,47.17
2023-08-17T21:55:32.231Z,47.01
2023-08-17T21:58:19.238Z,47.33
2023-08-17T22:01:05.409Z,47.23
2023-08-17T22:03:51.523Z,47.08
2023-08-17T22:06:38.648Z,47.33
2023-08-17T22:09:25.007Z,47.29
2023-08-17T22:12:10.906Z,47.60
2023-08-17T22:14:57.295Z,47.97
2023-08-17T22:17:43.758Z,47.97
2023-08-17T22:20:30.211Z,48.31
2023-08-17T22:23:16.473Z,48.04
2023-08-17T22:26:02.631Z,48.31
2023-08-17T22:28:48.717Z,48.19
2023-08-17T22:31:35.210Z,48.22
2023-08-17T22:34:21.281Z,48.39
2023-08-17T22:37:07.195Z,48.49
2023-08-17T22:39:53.212Z,48.33
2023-08-17T22:42:39.964Z,48.68
2023-08-17T22:45:26.005Z,48.35
2023-08-17T22:48:12.033Z,48.52
2023-08-17T22:50:58.315Z,48.50
2023-08-17T22:53:44.587Z,48.76
2023-08-17T22:56:30.443Z,48.82
2023-08-17T22:59:18.277Z,48.93
2023-08-17T23:02:04.664Z,48.90
2023-08-17T23:04:50.415Z,48.83
2023-08-17T23:07:36.459Z,48.86
2023-08-17T23:10:22.630Z,48.85
2023-08-17T23:13:10.238Z,49.13
2023-08-17T23:15:56.298Z,49.14
2023-08-17T23:18:42.703Z,49.31
2023-08-17T23:21:28.811Z,49.28
2023-08-17T23:24:14.863Z,49.11
2023-08-17T23:27:00.900Z,49.54
2023-08-17T23:29:46.824Z,49.48
2023-08-17T23:32:32.758Z,49.57
2023-08-17T23:35:18.857Z,49.57
2023-08-17T23:38:06.162Z,49.56
2023-08-17T23:40:53.576Z,49.77
2023-08-17T23:43:39.619Z,49.83
2023-08-17T23:46:25.557Z,50.15
2023-08-17T23:49:11.801Z,50.10
2023-08-17T23:51:57.791Z,50.15
2023-08-17T23:54:43.844Z,50.08
2023-08-17T23:57:31.710Z,50.03
